sensor_id;sensor_type;location;lat;lon;timestamp;P1;durP1;ratioP1;P2;durP2;ratioP2
64799;SDS011;51233;51.982;4.594;2022-12-19T00:02:37;15.50;;;12.50;;
64799;SDS011;51233;51.982;4.594;2022-12-19T00:05:38;14.20;;;12.13;;
64799;SDS011;51233;51.982;4.594;2022-12-19T00:08:40;12.50;;;11.00;;
64799;SDS011;51233;51.982;4.594;2022-12-19T00:11:40;15.65;;;13.05;;
64799;SDS011;51233;51.982;4.594;2022-12-19T00:14:41;16.23;;;14.52;;
64799;SDS011;51233;51.982;4.594;2022-12-19T00:17:41;14.68;;;12.23;;
64799;SDS011;51233;51.982;4.594;2022-12-19T00:20:41;16.98;;;14.27;;
64799;SDS011;51233;51.982;4.594;2022-12-19T00:23:41;15.97;;;13.40;;
64799;SDS011;51233;51.982;4.594;2022-12-19T00:26:41;13.23;;;11.80;;
64799;SDS011;51233;51.982;4.594;2022-12-19T00:29:42;13.65;;;10.57;;
64799;SDS011;51233;51.982;4.594;2022-12-19T00:32:42;13.80;;;11.82;;
64799;SDS011;51233;51.982;4.594;2022-12-19T00:35:42;14.73;;;13.13;;
64799;SDS011;51233;51.982;4.594;2022-12-19T00:38:42;15.70;;;12.50;;
64799;SDS011;51233;51.982;4.594;2022-12-19T00:41:43;14.85;;;13.27;;
64799;SDS011;51233;51.982;4.594;2022-12-19T00:44:43;14.83;;;13.23;;
64799;SDS011;51233;51.982;4.594;2022-12-19T00:47:43;14.23;;;11.68;;
64799;SDS011;51233;51.982;4.594;2022-12-19T00:50:43;15.52;;;12.00;;
64799;SDS011;51233;51.982;4.594;2022-12-19T00:53:44;13.53;;;12.10;;
64799;SDS011;51233;51.982;4.594;2022-12-19T00:56:45;13.60;;;10.93;;
64799;SDS011;51233;51.982;4.594;2022-12-19T00:59:45;14.35;;;12.38;;
64799;SDS011;51233;51.982;4.594;2022-12-19T01:02:45;15.90;;;12.73;;
64799;SDS011;51233;51.982;4.594;2022-12-19T01:05:45;14.87;;;12.97;;
64799;SDS011;51233;51.982;4.594;2022-12-19T01:08:45;14.70;;;13.03;;
64799;SDS011;51233;51.982;4.594;2022-12-19T01:11:46;15.50;;;12.73;;
64799;SDS011;51233;51.982;4.594;2022-12-19T01:15:21;15.15;;;12.93;;
64799;SDS011;51233;51.982;4.594;2022-12-19T01:18:21;14.52;;;12.27;;
64799;SDS011;51233;51.982;4.594;2022-12-19T01:21:22;15.07;;;12.90;;
64799;SDS011;51233;51.982;4.594;2022-12-19T01:24:22;16.05;;;13.48;;
64799;SDS011;51233;51.982;4.594;2022-12-19T01:27:22;13.25;;;11.55;;
64799;SDS011;51233;51.982;4.594;2022-12-19T01:30:22;16.20;;;13.98;;
64799;SDS011;51233;51.982;4.594;2022-12-19T01:33:23;15.38;;;13.77;;
64799;SDS011;51233;51.982;4.594;2022-12-19T01:36:23;15.90;;;14.23;;
64799;SDS011;51233;51.982;4.594;2022-12-19T01:39:23;15.52;;;13.65;;
64799;SDS011;51233;51.982;4.594;2022-12-19T01:42:23;15.02;;;13.40;;
64799;SDS011;51233;51.982;4.594;2022-12-19T01:45:27;16.42;;;12.65;;
64799;SDS011;51233;51.982;4.594;2022-12-19T01:48:32;14.57;;;12.98;;
64799;SDS011;51233;51.982;4.594;2022-12-19T01:51:36;15.73;;;13.30;;
64799;SDS011;51233;51.982;4.594;2022-12-19T01:54:41;15.40;;;13.80;;
64799;SDS011;51233;51.982;4.594;2022-12-19T01:57:42;15.15;;;12.15;;
64799;SDS011;51233;51.982;4.594;2022-12-19T02:00:42;12.07;;;10.88;;
64799;SDS011;51233;51.982;4.594;2022-12-19T02:03:43;13.57;;;10.77;;
64799;SDS011;51233;51.982;4.594;2022-12-19T02:06:44;13.15;;;11.80;;
64799;SDS011;51233;51.982;4.594;2022-12-19T02:09:47;13.93;;;11.60;;
64799;SDS011;51233;51.982;4.594;2022-12-19T02:12:48;13.25;;;10.68;;
64799;SDS011;51233;51.982;4.594;2022-12-19T02:22:11;12.63;;;10.38;;
64799;SDS011;51233;51.982;4.594;2022-12-19T02:31:30;12.93;;;11.10;;
64799;SDS011;51233;51.982;4.594;2022-12-19T02:37:43;12.43;;;11.13;;
64799;SDS011;51233;51.982;4.594;2022-12-19T02:41:03;10.55;;;9.52;;
64799;SDS011;51233;51.982;4.594;2022-12-19T02:44:04;10.65;;;9.55;;
64799;SDS011;51233;51.982;4.594;2022-12-19T02:47:05;10.68;;;9.57;;
64799;SDS011;51233;51.982;4.594;2022-12-19T02:50:06;9.82;;;8.90;;
64799;SDS011;51233;51.982;4.594;2022-12-19T02:53:08;9.80;;;8.80;;
64799;SDS011;51233;51.982;4.594;2022-12-19T02:59:27;10.23;;;9.13;;
64799;SDS011;51233;51.982;4.594;2022-12-19T03:02:50;10.15;;;9.15;;
64799;SDS011;51233;51.982;4.594;2022-12-19T03:06:07;9.43;;;8.52;;
64799;SDS011;51233;51.982;4.594;2022-12-19T03:12:33;7.95;;;7.35;;
64799;SDS011;51233;51.982;4.594;2022-12-19T03:15:37;8.05;;;7.32;;
64799;SDS011;51233;51.982;4.594;2022-12-19T03:18:38;8.57;;;7.77;;
64799;SDS011;51233;51.982;4.594;2022-12-19T03:21:45;8.35;;;7.65;;
64799;SDS011;51233;51.982;4.594;2022-12-19T03:24:46;8.15;;;7.45;;
64799;SDS011;51233;51.982;4.594;2022-12-19T03:27:46;8.27;;;7.57;;
64799;SDS011;51233;51.982;4.594;2022-12-19T03:30:47;7.97;;;7.28;;
64799;SDS011;51233;51.982;4.594;2022-12-19T03:33:49;7.07;;;6.47;;
64799;SDS011;51233;51.982;4.594;2022-12-19T03:36:52;7.38;;;6.35;;
64799;SDS011;51233;51.982;4.594;2022-12-19T03:39:57;6.80;;;6.20;;
64799;SDS011;51233;51.982;4.594;2022-12-19T03:42:59;6.70;;;6.10;;
64799;SDS011;51233;51.982;4.594;2022-12-19T03:46:11;6.65;;;6.15;;
64799;SDS011;51233;51.982;4.594;2022-12-19T03:49:13;6.20;;;5.70;;
64799;SDS011;51233;51.982;4.594;2022-12-19T03:58:35;6.43;;;5.93;;
64799;SDS011;51233;51.982;4.594;2022-12-19T04:01:36;6.20;;;5.80;;
64799;SDS011;51233;51.982;4.594;2022-12-19T04:04:44;5.63;;;5.22;;
64799;SDS011;51233;51.982;4.594;2022-12-19T04:07:45;6.05;;;5.55;;
64799;SDS011;51233;51.982;4.594;2022-12-19T04:10:47;6.30;;;5.80;;
64799;SDS011;51233;51.982;4.594;2022-12-19T04:13:50;5.88;;;5.47;;
64799;SDS011;51233;51.982;4.594;2022-12-19T04:16:54;6.35;;;5.85;;
64799;SDS011;51233;51.982;4.594;2022-12-19T04:26:15;5.80;;;5.40;;
64799;SDS011;51233;51.982;4.594;2022-12-19T04:29:17;5.47;;;5.07;;
64799;SDS011;51233;51.982;4.594;2022-12-19T04:32:18;5.38;;;4.97;;
64799;SDS011;51233;51.982;4.594;2022-12-19T04:35:18;5.25;;;4.85;;
64799;SDS011;51233;51.982;4.594;2022-12-19T04:38:18;5.10;;;4.70;;
64799;SDS011;51233;51.982;4.594;2022-12-19T04:41:19;4.97;;;4.57;;
64799;SDS011;51233;51.982;4.594;2022-12-19T04:44:19;5.07;;;4.47;;
64799;SDS011;51233;51.982;4.594;2022-12-19T04:47:19;4.28;;;3.88;;
64799;SDS011;51233;51.982;4.594;2022-12-19T04:50:19;4.32;;;4.03;;
64799;SDS011;51233;51.982;4.594;2022-12-19T04:53:19;4.60;;;4.30;;
64799;SDS011;51233;51.982;4.594;2022-12-19T04:56:20;3.83;;;3.53;;
64799;SDS011;51233;51.982;4.594;2022-12-19T04:59:20;4.82;;;4.43;;
64799;SDS011;51233;51.982;4.594;2022-12-19T05:02:20;4.80;;;4.40;;
64799;SDS011;51233;51.982;4.594;2022-12-19T05:05:20;5.00;;;4.60;;
64799;SDS011;51233;51.982;4.594;2022-12-19T05:08:20;5.13;;;4.72;;
64799;SDS011;51233;51.982;4.594;2022-12-19T05:11:21;5.50;;;5.10;;
64799;SDS011;51233;51.982;4.594;2022-12-19T05:14:21;5.30;;;4.80;;
64799;SDS011;51233;51.982;4.594;2022-12-19T05:17:21;5.57;;;5.07;;
64799;SDS011;51233;51.982;4.594;2022-12-19T05:20:24;4.78;;;4.40;;
64799;SDS011;51233;51.982;4.594;2022-12-19T05:23:25;5.40;;;4.90;;
64799;SDS011;51233;51.982;4.594;2022-12-19T05:26:25;5.30;;;4.80;;
64799;SDS011;51233;51.982;4.594;2022-12-19T05:29:25;5.10;;;4.68;;
64799;SDS011;51233;51.982;4.594;2022-12-19T05:32:29;5.35;;;4.85;;
64799;SDS011;51233;51.982;4.594;2022-12-19T05:35:30;5.68;;;5.07;;
64799;SDS011;51233;51.982;4.594;2022-12-19T05:38:31;5.53;;;5.03;;
64799;SDS011;51233;51.982;4.594;2022-12-19T05:41:31;4.90;;;4.50;;
64799;SDS011;51233;51.982;4.594;2022-12-19T05:44:31;5.50;;;5.07;;
64799;SDS011;51233;51.982;4.594;2022-12-19T05:47:31;4.78;;;4.38;;
64799;SDS011;51233;51.982;4.594;2022-12-19T05:50:31;5.38;;;4.88;;
64799;SDS011;51233;51.982;4.594;2022-12-19T05:53:34;6.13;;;5.57;;
64799;SDS011;51233;51.982;4.594;2022-12-19T05:56:34;5.55;;;5.05;;
64799;SDS011;51233;51.982;4.594;2022-12-19T05:59:34;5.78;;;5.28;;
64799;SDS011;51233;51.982;4.594;2022-12-19T06:02:35;5.55;;;5.07;;
64799;SDS011;51233;51.982;4.594;2022-12-19T06:05:35;6.63;;;5.28;;
64799;SDS011;51233;51.982;4.594;2022-12-19T06:08:36;5.43;;;4.95;;
64799;SDS011;51233;51.982;4.594;2022-12-19T06:11:36;5.72;;;5.18;;
64799;SDS011;51233;51.982;4.594;2022-12-19T06:14:36;5.93;;;4.75;;
64799;SDS011;51233;51.982;4.594;2022-12-19T06:17:37;4.85;;;4.40;;
64799;SDS011;51233;51.982;4.594;2022-12-19T06:20:37;4.80;;;4.45;;
64799;SDS011;51233;51.982;4.594;2022-12-19T06:23:37;6.30;;;5.10;;
64799;SDS011;51233;51.982;4.594;2022-12-19T06:26:37;4.60;;;4.30;;
64799;SDS011;51233;51.982;4.594;2022-12-19T06:29:37;5.63;;;5.17;;
64799;SDS011;51233;51.982;4.594;2022-12-19T06:32:38;7.93;;;5.10;;
64799;SDS011;51233;51.982;4.594;2022-12-19T06:35:38;6.03;;;5.47;;
64799;SDS011;51233;51.982;4.594;2022-12-19T06:38:38;5.70;;;5.07;;
64799;SDS011;51233;51.982;4.594;2022-12-19T06:41:38;5.95;;;5.35;;
64799;SDS011;51233;51.982;4.594;2022-12-19T06:44:57;13.77;;;9.98;;
64799;SDS011;51233;51.982;4.594;2022-12-19T06:47:57;10.53;;;8.30;;
64799;SDS011;51233;51.982;4.594;2022-12-19T06:50:58;8.65;;;7.30;;
64799;SDS011;51233;51.982;4.594;2022-12-19T06:53:58;18.63;;;12.35;;
64799;SDS011;51233;51.982;4.594;2022-12-19T06:56:58;64.43;;;39.55;;
64799;SDS011;51233;51.982;4.594;2022-12-19T06:59:58;35.67;;;22.33;;
64799;SDS011;51233;51.982;4.594;2022-12-19T07:02:58;22.90;;;14.38;;
64799;SDS011;51233;51.982;4.594;2022-12-19T07:05:58;30.30;;;19.70;;
64799;SDS011;51233;51.982;4.594;2022-12-19T07:08:59;11.67;;;9.90;;
64799;SDS011;51233;51.982;4.594;2022-12-19T07:11:59;6.30;;;5.63;;
64799;SDS011;51233;51.982;4.594;2022-12-19T07:15:00;13.38;;;9.52;;
64799;SDS011;51233;51.982;4.594;2022-12-19T07:18:00;8.68;;;7.30;;
64799;SDS011;51233;51.982;4.594;2022-12-19T07:24:05;5.30;;;4.53;;
64799;SDS011;51233;51.982;4.594;2022-12-19T07:27:06;5.60;;;4.60;;
64799;SDS011;51233;51.982;4.594;2022-12-19T07:30:06;7.70;;;5.80;;
64799;SDS011;51233;51.982;4.594;2022-12-19T07:33:07;5.30;;;4.78;;
64799;SDS011;51233;51.982;4.594;2022-12-19T07:36:07;5.88;;;4.60;;
64799;SDS011;51233;51.982;4.594;2022-12-19T07:39:07;5.40;;;4.40;;
64799;SDS011;51233;51.982;4.594;2022-12-19T07:42:07;4.88;;;4.40;;
64799;SDS011;51233;51.982;4.594;2022-12-19T07:45:07;5.63;;;3.83;;
64799;SDS011;51233;51.982;4.594;2022-12-19T07:48:08;4.97;;;4.57;;
64799;SDS011;51233;51.982;4.594;2022-12-19T07:51:09;6.63;;;4.63;;
64799;SDS011;51233;51.982;4.594;2022-12-19T07:54:09;6.30;;;4.32;;
64799;SDS011;51233;51.982;4.594;2022-12-19T07:57:12;5.60;;;4.85;;
64799;SDS011;51233;51.982;4.594;2022-12-19T08:00:12;5.18;;;4.72;;
64799;SDS011;51233;51.982;4.594;2022-12-19T08:03:15;6.97;;;5.20;;
64799;SDS011;51233;51.982;4.594;2022-12-19T08:06:18;5.85;;;4.03;;
64799;SDS011;51233;51.982;4.594;2022-12-19T08:09:19;6.57;;;5.47;;
64799;SDS011;51233;51.982;4.594;2022-12-19T08:12:19;30.90;;;15.70;;
64799;SDS011;51233;51.982;4.594;2022-12-19T08:15:19;45.13;;;25.25;;
64799;SDS011;51233;51.982;4.594;2022-12-19T08:18:19;75.72;;;42.13;;
64799;SDS011;51233;51.982;4.594;2022-12-19T08:21:19;11.07;;;8.85;;
64799;SDS011;51233;51.982;4.594;2022-12-19T08:24:20;6.75;;;5.93;;
64799;SDS011;51233;51.982;4.594;2022-12-19T08:27:20;6.82;;;5.90;;
64799;SDS011;51233;51.982;4.594;2022-12-19T08:30:20;6.88;;;5.80;;
64799;SDS011;51233;51.982;4.594;2022-12-19T08:33:20;8.73;;;5.97;;
64799;SDS011;51233;51.982;4.594;2022-12-19T08:36:23;7.38;;;5.97;;
64799;SDS011;51233;51.982;4.594;2022-12-19T08:39:24;9.50;;;7.20;;
64799;SDS011;51233;51.982;4.594;2022-12-19T08:42:24;8.50;;;6.93;;
64799;SDS011;51233;51.982;4.594;2022-12-19T08:45:24;7.40;;;6.63;;
64799;SDS011;51233;51.982;4.594;2022-12-19T08:48:27;12.03;;;8.60;;
64799;SDS011;51233;51.982;4.594;2022-12-19T08:51:28;20.38;;;12.50;;
64799;SDS011;51233;51.982;4.594;2022-12-19T08:54:28;16.40;;;10.75;;
64799;SDS011;51233;51.982;4.594;2022-12-19T08:57:28;15.10;;;10.68;;
64799;SDS011;51233;51.982;4.594;2022-12-19T09:00:28;18.10;;;12.43;;
64799;SDS011;51233;51.982;4.594;2022-12-19T09:03:28;18.17;;;12.38;;
64799;SDS011;51233;51.982;4.594;2022-12-19T09:06:29;13.80;;;9.77;;
64799;SDS011;51233;51.982;4.594;2022-12-19T09:09:30;21.40;;;12.93;;
64799;SDS011;51233;51.982;4.594;2022-12-19T09:12:30;18.38;;;12.25;;
64799;SDS011;51233;51.982;4.594;2022-12-19T09:15:30;14.90;;;10.27;;
64799;SDS011;51233;51.982;4.594;2022-12-19T09:18:30;21.05;;;12.82;;
64799;SDS011;51233;51.982;4.594;2022-12-19T09:21:30;16.50;;;12.07;;
64799;SDS011;51233;51.982;4.594;2022-12-19T09:24:30;14.23;;;9.30;;
64799;SDS011;51233;51.982;4.594;2022-12-19T09:27:31;14.10;;;9.15;;
64799;SDS011;51233;51.982;4.594;2022-12-19T09:30:34;9.13;;;6.65;;
64799;SDS011;51233;51.982;4.594;2022-12-19T09:33:34;10.32;;;6.80;;
64799;SDS011;51233;51.982;4.594;2022-12-19T09:36:37;8.00;;;7.18;;
64799;SDS011;51233;51.982;4.594;2022-12-19T09:39:37;10.73;;;7.40;;
64799;SDS011;51233;51.982;4.594;2022-12-19T09:42:58;17.03;;;12.67;;
64799;SDS011;51233;51.982;4.594;2022-12-19T09:46:07;19.45;;;13.23;;
64799;SDS011;51233;51.982;4.594;2022-12-19T09:49:45;17.50;;;12.40;;
64799;SDS011;51233;51.982;4.594;2022-12-19T09:52:38;15.13;;;9.25;;
64799;SDS011;51233;51.982;4.594;2022-12-19T09:55:40;13.13;;;8.70;;
64799;SDS011;51233;51.982;4.594;2022-12-19T09:58:42;11.57;;;8.55;;
64799;SDS011;51233;51.982;4.594;2022-12-19T10:01:48;14.43;;;8.85;;
64799;SDS011;51233;51.982;4.594;2022-12-19T10:04:52;10.52;;;7.30;;
64799;SDS011;51233;51.982;4.594;2022-12-19T10:07:53;9.02;;;5.85;;
64799;SDS011;51233;51.982;4.594;2022-12-19T10:11:08;8.18;;;5.80;;
64799;SDS011;51233;51.982;4.594;2022-12-19T10:17:18;6.90;;;5.50;;
64799;SDS011;51233;51.982;4.594;2022-12-19T10:20:37;6.70;;;5.57;;
64799;SDS011;51233;51.982;4.594;2022-12-19T10:23:50;5.07;;;4.47;;
64799;SDS011;51233;51.982;4.594;2022-12-19T10:27:05;6.03;;;4.63;;
64799;SDS011;51233;51.982;4.594;2022-12-19T10:33:54;9.38;;;4.90;;
64799;SDS011;51233;51.982;4.594;2022-12-19T10:36:44;6.25;;;4.57;;
64799;SDS011;51233;51.982;4.594;2022-12-19T10:49:26;6.30;;;4.57;;
64799;SDS011;51233;51.982;4.594;2022-12-19T10:52:45;3.58;;;3.25;;
64799;SDS011;51233;51.982;4.594;2022-12-19T10:56:10;4.18;;;3.80;;
64799;SDS011;51233;51.982;4.594;2022-12-19T10:59:15;4.68;;;4.28;;
64799;SDS011;51233;51.982;4.594;2022-12-19T11:02:21;4.40;;;3.80;;
64799;SDS011;51233;51.982;4.594;2022-12-19T11:08:27;5.45;;;3.25;;
64799;SDS011;51233;51.982;4.594;2022-12-19T11:11:29;5.25;;;3.53;;
64799;SDS011;51233;51.982;4.594;2022-12-19T11:14:34;7.00;;;3.80;;
64799;SDS011;51233;51.982;4.594;2022-12-19T11:17:35;4.75;;;3.40;;
64799;SDS011;51233;51.982;4.594;2022-12-19T11:20:36;3.65;;;3.17;;
64799;SDS011;51233;51.982;4.594;2022-12-19T11:23:36;3.67;;;3.20;;
64799;SDS011;51233;51.982;4.594;2022-12-19T11:26:44;3.78;;;3.00;;
64799;SDS011;51233;51.982;4.594;2022-12-19T11:29:48;3.55;;;3.20;;
64799;SDS011;51233;51.982;4.594;2022-12-19T11:33:05;3.83;;;3.38;;
64799;SDS011;51233;51.982;4.594;2022-12-19T11:36:06;3.20;;;3.00;;
64799;SDS011;51233;51.982;4.594;2022-12-19T11:39:11;3.50;;;3.20;;
64799;SDS011;51233;51.982;4.594;2022-12-19T11:42:28;5.80;;;3.50;;
64799;SDS011;51233;51.982;4.594;2022-12-19T11:48:40;3.80;;;3.37;;
64799;SDS011;51233;51.982;4.594;2022-12-19T11:55:03;4.57;;;3.10;;
64799;SDS011;51233;51.982;4.594;2022-12-19T11:58:07;4.50;;;3.38;;
64799;SDS011;51233;51.982;4.594;2022-12-19T12:07:45;4.45;;;3.20;;
64799;SDS011;51233;51.982;4.594;2022-12-19T12:10:53;5.22;;;3.60;;
64799;SDS011;51233;51.982;4.594;2022-12-19T12:17:14;4.47;;;3.30;;
64799;SDS011;51233;51.982;4.594;2022-12-19T12:23:24;4.32;;;3.63;;
64799;SDS011;51233;51.982;4.594;2022-12-19T12:30:02;7.27;;;4.23;;
64799;SDS011;51233;51.982;4.594;2022-12-19T12:33:05;5.80;;;4.35;;
64799;SDS011;51233;51.982;4.594;2022-12-19T12:36:09;4.30;;;3.90;;
64799;SDS011;51233;51.982;4.594;2022-12-19T12:39:18;5.47;;;3.92;;
64799;SDS011;51233;51.982;4.594;2022-12-19T12:42:33;5.63;;;4.25;;
64799;SDS011;51233;51.982;4.594;2022-12-19T12:45:39;4.47;;;3.97;;
64799;SDS011;51233;51.982;4.594;2022-12-19T12:48:44;6.25;;;3.83;;
64799;SDS011;51233;51.982;4.594;2022-12-19T12:51:47;7.68;;;4.28;;
64799;SDS011;51233;51.982;4.594;2022-12-19T12:54:48;8.43;;;5.10;;
64799;SDS011;51233;51.982;4.594;2022-12-19T12:57:49;8.35;;;5.00;;
64799;SDS011;51233;51.982;4.594;2022-12-19T13:01:35;8.45;;;5.28;;
64799;SDS011;51233;51.982;4.594;2022-12-19T13:13:13;12.82;;;7.70;;
64799;SDS011;51233;51.982;4.594;2022-12-19T13:19:56;9.73;;;6.00;;
64799;SDS011;51233;51.982;4.594;2022-12-19T13:26:45;5.32;;;4.80;;
64799;SDS011;51233;51.982;4.594;2022-12-19T13:35:58;4.90;;;4.13;;
64799;SDS011;51233;51.982;4.594;2022-12-19T13:38:58;6.55;;;5.15;;
64799;SDS011;51233;51.982;4.594;2022-12-19T13:45:28;6.95;;;5.35;;
64799;SDS011;51233;51.982;4.594;2022-12-19T13:48:49;6.32;;;4.65;;
64799;SDS011;51233;51.982;4.594;2022-12-19T13:51:53;6.93;;;5.18;;
64799;SDS011;51233;51.982;4.594;2022-12-19T13:54:57;7.63;;;5.05;;
64799;SDS011;51233;51.982;4.594;2022-12-19T13:58:02;6.40;;;4.63;;
64799;SDS011;51233;51.982;4.594;2022-12-19T14:01:07;5.45;;;4.82;;
64799;SDS011;51233;51.982;4.594;2022-12-19T14:04:26;5.65;;;4.88;;
64799;SDS011;51233;51.982;4.594;2022-12-19T14:07:33;9.05;;;5.32;;
64799;SDS011;51233;51.982;4.594;2022-12-19T14:10:34;7.38;;;5.00;;
64799;SDS011;51233;51.982;4.594;2022-12-19T14:13:36;10.88;;;5.15;;
64799;SDS011;51233;51.982;4.594;2022-12-19T14:17:14;7.65;;;4.93;;
64799;SDS011;51233;51.982;4.594;2022-12-19T14:20:19;5.00;;;4.28;;
64799;SDS011;51233;51.982;4.594;2022-12-19T14:23:19;8.13;;;5.03;;
64799;SDS011;51233;51.982;4.594;2022-12-19T14:26:26;5.50;;;3.85;;
64799;SDS011;51233;51.982;4.594;2022-12-19T14:29:30;5.43;;;3.75;;
64799;SDS011;51233;51.982;4.594;2022-12-19T14:32:33;3.60;;;3.30;;
64799;SDS011;51233;51.982;4.594;2022-12-19T14:35:35;6.30;;;3.33;;
64799;SDS011;51233;51.982;4.594;2022-12-19T14:38:36;4.18;;;3.05;;
64799;SDS011;51233;51.982;4.594;2022-12-19T14:41:39;3.85;;;3.28;;
64799;SDS011;51233;51.982;4.594;2022-12-19T14:44:58;3.50;;;2.92;;
64799;SDS011;51233;51.982;4.594;2022-12-19T14:47:59;3.57;;;3.20;;
64799;SDS011;51233;51.982;4.594;2022-12-19T14:51:43;7.70;;;3.33;;
64799;SDS011;51233;51.982;4.594;2022-12-19T14:54:25;3.50;;;3.20;;
64799;SDS011;51233;51.982;4.594;2022-12-19T14:57:25;4.50;;;3.60;;
64799;SDS011;51233;51.982;4.594;2022-12-19T15:00:29;4.25;;;3.33;;
64799;SDS011;51233;51.982;4.594;2022-12-19T15:03:38;5.63;;;3.75;;
64799;SDS011;51233;51.982;4.594;2022-12-19T15:06:40;6.82;;;2.90;;
64799;SDS011;51233;51.982;4.594;2022-12-19T15:13:00;4.88;;;2.83;;
64799;SDS011;51233;51.982;4.594;2022-12-19T15:16:33;5.03;;;3.17;;
64799;SDS011;51233;51.982;4.594;2022-12-19T15:19:33;5.18;;;3.08;;
64799;SDS011;51233;51.982;4.594;2022-12-19T15:22:34;4.65;;;2.30;;
64799;SDS011;51233;51.982;4.594;2022-12-19T15:25:34;3.35;;;2.60;;
64799;SDS011;51233;51.982;4.594;2022-12-19T15:28:38;4.30;;;3.30;;
64799;SDS011;51233;51.982;4.594;2022-12-19T15:31:40;4.90;;;3.47;;
64799;SDS011;51233;51.982;4.594;2022-12-19T15:34:40;6.50;;;4.00;;
64799;SDS011;51233;51.982;4.594;2022-12-19T15:37:42;5.93;;;3.00;;
64799;SDS011;51233;51.982;4.594;2022-12-19T15:40:42;4.68;;;2.83;;
64799;SDS011;51233;51.982;4.594;2022-12-19T15:43:43;6.82;;;3.60;;
64799;SDS011;51233;51.982;4.594;2022-12-19T15:46:43;3.85;;;3.00;;
64799;SDS011;51233;51.982;4.594;2022-12-19T15:49:44;5.07;;;2.80;;
64799;SDS011;51233;51.982;4.594;2022-12-19T15:52:45;6.13;;;3.22;;
64799;SDS011;51233;51.982;4.594;2022-12-19T15:55:45;4.68;;;3.00;;
64799;SDS011;51233;51.982;4.594;2022-12-19T15:58:46;3.85;;;2.85;;
64799;SDS011;51233;51.982;4.594;2022-12-19T16:01:46;3.20;;;2.80;;
64799;SDS011;51233;51.982;4.594;2022-12-19T16:04:47;3.53;;;2.73;;
64799;SDS011;51233;51.982;4.594;2022-12-19T16:07:48;3.00;;;2.67;;
64799;SDS011;51233;51.982;4.594;2022-12-19T16:10:50;5.05;;;2.90;;
64799;SDS011;51233;51.982;4.594;2022-12-19T16:13:54;2.85;;;2.65;;
64799;SDS011;51233;51.982;4.594;2022-12-19T16:16:55;6.22;;;4.05;;
64799;SDS011;51233;51.982;4.594;2022-12-19T16:19:55;7.87;;;5.57;;
64799;SDS011;51233;51.982;4.594;2022-12-19T16:22:56;5.65;;;4.93;;
64799;SDS011;51233;51.982;4.594;2022-12-19T16:25:56;6.38;;;5.78;;
64799;SDS011;51233;51.982;4.594;2022-12-19T16:28:58;5.30;;;3.70;;
64799;SDS011;51233;51.982;4.594;2022-12-19T16:31:59;4.07;;;3.50;;
64799;SDS011;51233;51.982;4.594;2022-12-19T16:35:00;3.60;;;3.30;;
64799;SDS011;51233;51.982;4.594;2022-12-19T16:38:00;6.22;;;3.90;;
64799;SDS011;51233;51.982;4.594;2022-12-19T16:41:01;6.07;;;3.27;;
64799;SDS011;51233;51.982;4.594;2022-12-19T16:44:01;4.07;;;3.30;;
64799;SDS011;51233;51.982;4.594;2022-12-19T16:47:05;5.13;;;3.80;;
64799;SDS011;51233;51.982;4.594;2022-12-19T16:53:18;4.53;;;3.53;;
64799;SDS011;51233;51.982;4.594;2022-12-19T16:56:34;6.65;;;3.80;;
64799;SDS011;51233;51.982;4.594;2022-12-19T16:59:36;3.92;;;3.33;;
64799;SDS011;51233;51.982;4.594;2022-12-19T17:02:45;6.00;;;3.47;;
64799;SDS011;51233;51.982;4.594;2022-12-19T17:05:46;6.30;;;3.80;;
64799;SDS011;51233;51.982;4.594;2022-12-19T17:08:46;5.53;;;3.58;;
64799;SDS011;51233;51.982;4.594;2022-12-19T17:11:47;5.50;;;3.78;;
64799;SDS011;51233;51.982;4.594;2022-12-19T17:14:47;7.00;;;3.63;;
64799;SDS011;51233;51.982;4.594;2022-12-19T17:17:48;4.20;;;3.38;;
64799;SDS011;51233;51.982;4.594;2022-12-19T17:20:48;3.28;;;2.97;;
64799;SDS011;51233;51.982;4.594;2022-12-19T17:23:55;4.97;;;3.60;;
64799;SDS011;51233;51.982;4.594;2022-12-19T17:26:56;3.75;;;3.30;;
64799;SDS011;51233;51.982;4.594;2022-12-19T17:29:56;5.15;;;3.78;;
64799;SDS011;51233;51.982;4.594;2022-12-19T17:32:56;8.55;;;3.50;;
64799;SDS011;51233;51.982;4.594;2022-12-19T17:36:02;3.58;;;3.03;;
64799;SDS011;51233;51.982;4.594;2022-12-19T17:39:36;4.43;;;3.67;;
64799;SDS011;51233;51.982;4.594;2022-12-19T17:42:30;3.60;;;3.22;;
64799;SDS011;51233;51.982;4.594;2022-12-19T17:45:30;4.18;;;3.33;;
64799;SDS011;51233;51.982;4.594;2022-12-19T17:48:31;3.40;;;3.10;;
64799;SDS011;51233;51.982;4.594;2022-12-19T17:51:32;4.60;;;3.28;;
64799;SDS011;51233;51.982;4.594;2022-12-19T17:54:32;5.45;;;3.85;;
64799;SDS011;51233;51.982;4.594;2022-12-19T17:57:33;8.77;;;3.38;;
64799;SDS011;51233;51.982;4.594;2022-12-19T18:00:33;5.23;;;3.10;;
64799;SDS011;51233;51.982;4.594;2022-12-19T18:03:33;3.97;;;3.47;;
64799;SDS011;51233;51.982;4.594;2022-12-19T18:06:33;4.80;;;3.13;;
64799;SDS011;51233;51.982;4.594;2022-12-19T18:09:35;4.13;;;3.50;;
64799;SDS011;51233;51.982;4.594;2022-12-19T18:12:35;4.65;;;3.45;;
64799;SDS011;51233;51.982;4.594;2022-12-19T18:15:39;6.32;;;3.22;;
64799;SDS011;51233;51.982;4.594;2022-12-19T18:18:39;5.07;;;3.78;;
64799;SDS011;51233;51.982;4.594;2022-12-19T18:21:39;3.75;;;3.35;;
64799;SDS011;51233;51.982;4.594;2022-12-19T18:24:39;4.80;;;3.30;;
64799;SDS011;51233;51.982;4.594;2022-12-19T18:27:39;3.85;;;3.28;;
64799;SDS011;51233;51.982;4.594;2022-12-19T18:30:43;6.77;;;2.83;;
64799;SDS011;51233;51.982;4.594;2022-12-19T18:33:44;4.55;;;3.60;;
64799;SDS011;51233;51.982;4.594;2022-12-19T18:36:45;7.18;;;5.80;;
64799;SDS011;51233;51.982;4.594;2022-12-19T18:39:46;7.63;;;4.40;;
64799;SDS011;51233;51.982;4.594;2022-12-19T18:42:46;4.60;;;4.15;;
64799;SDS011;51233;51.982;4.594;2022-12-19T18:45:47;3.33;;;2.97;;
64799;SDS011;51233;51.982;4.594;2022-12-19T18:48:49;4.68;;;3.70;;
64799;SDS011;51233;51.982;4.594;2022-12-19T18:51:49;4.60;;;3.65;;
64799;SDS011;51233;51.982;4.594;2022-12-19T18:54:49;5.57;;;3.63;;
64799;SDS011;51233;51.982;4.594;2022-12-19T18:57:50;4.85;;;4.00;;
64799;SDS011;51233;51.982;4.594;2022-12-19T19:00:51;5.88;;;4.20;;
64799;SDS011;51233;51.982;4.594;2022-12-19T19:03:52;4.88;;;3.45;;
64799;SDS011;51233;51.982;4.594;2022-12-19T19:06:56;3.55;;;3.25;;
64799;SDS011;51233;51.982;4.594;2022-12-19T19:09:56;3.70;;;3.40;;
64799;SDS011;51233;51.982;4.594;2022-12-19T19:12:56;4.53;;;3.72;;
64799;SDS011;51233;51.982;4.594;2022-12-19T19:15:58;5.43;;;3.50;;
64799;SDS011;51233;51.982;4.594;2022-12-19T19:18:58;4.57;;;3.83;;
64799;SDS011;51233;51.982;4.594;2022-12-19T19:22:03;6.45;;;4.00;;
64799;SDS011;51233;51.982;4.594;2022-12-19T19:25:03;4.28;;;3.42;;
64799;SDS011;51233;51.982;4.594;2022-12-19T19:28:04;4.07;;;3.60;;
64799;SDS011;51233;51.982;4.594;2022-12-19T19:31:04;5.32;;;3.63;;
64799;SDS011;51233;51.982;4.594;2022-12-19T19:34:17;5.80;;;3.60;;
64799;SDS011;51233;51.982;4.594;2022-12-19T19:37:20;4.72;;;3.88;;
64799;SDS011;51233;51.982;4.594;2022-12-19T19:40:21;4.60;;;3.80;;
64799;SDS011;51233;51.982;4.594;2022-12-19T19:43:21;6.72;;;3.60;;
64799;SDS011;51233;51.982;4.594;2022-12-19T19:46:21;7.35;;;4.28;;
64799;SDS011;51233;51.982;4.594;2022-12-19T19:49:21;5.93;;;3.75;;
64799;SDS011;51233;51.982;4.594;2022-12-19T19:52:21;4.27;;;3.70;;
64799;SDS011;51233;51.982;4.594;2022-12-19T19:55:22;5.45;;;3.92;;
64799;SDS011;51233;51.982;4.594;2022-12-19T19:58:22;3.95;;;3.53;;
64799;SDS011;51233;51.982;4.594;2022-12-19T20:01:22;4.25;;;3.10;;
64799;SDS011;51233;51.982;4.594;2022-12-19T20:04:22;7.03;;;3.87;;
64799;SDS011;51233;51.982;4.594;2022-12-19T20:07:22;4.95;;;3.47;;